createdAt,value
2023-02-19T00:00:51.716Z,4.53
2023-02-19T00:05:59.176Z,4.51
2023-02-19T00:11:08.833Z,4.48
2023-02-19T00:16:20.278Z,4.45
2023-02-19T00:21:28.940Z,4.42
2023-02-19T00:26:37.604Z,4.38
2023-02-19T00:31:46.397Z,4.36
2023-02-19T00:36:54.696Z,4.31
2023-02-19T00:42:03.142Z,4.25
2023-02-19T00:47:10.904Z,4.21
2023-02-19T00:52:19.971Z,4.16
2023-02-19T00:57:28.183Z,4.13
2023-02-19T01:02:36.634Z,4.09
2023-02-19T01:07:45.002Z,4.06
2023-02-19T01:12:53.222Z,4.02
2023-02-19T01:18:02.014Z,3.99
2023-02-19T01:23:10.040Z,3.94
2023-02-19T01:28:18.187Z,3.89
2023-02-19T01:33:25.700Z,3.85
2023-02-19T01:38:33.891Z,3.81
2023-02-19T01:44:02.227Z,3.78
2023-02-19T01:49:14.422Z,3.75
2023-02-19T01:54:27.020Z,3.73
2023-02-19T01:59:36.096Z,3.71
2023-02-19T02:04:43.664Z,3.70
2023-02-19T02:10:10.666Z,3.68
2023-02-19T02:15:19.503Z,3.67
2023-02-19T02:20:48.706Z,3.65
2023-02-19T02:26:18.048Z,3.63
2023-02-19T02:31:31.918Z,3.61
2023-02-19T02:36:44.444Z,3.59
2023-02-19T02:42:18.769Z,3.57
2023-02-19T02:47:43.382Z,3.53
2023-02-19T02:53:12.070Z,3.50
2023-02-19T02:58:22.865Z,3.46
2023-02-19T03:03:34.560Z,3.44
2023-02-19T03:08:46.319Z,3.41
2023-02-19T03:14:18.357Z,3.38
2023-02-19T03:19:29.540Z,3.34
2023-02-19T03:25:00.509Z,3.33
2023-02-19T03:30:15.020Z,3.30
2023-02-19T03:35:25.766Z,3.28
2023-02-19T03:40:40.992Z,3.26
2023-02-19T03:45:58.483Z,3.24
2023-02-19T03:51:20.685Z,3.22
2023-02-19T03:56:36.466Z,3.19
2023-02-19T04:01:49.296Z,3.17
2023-02-19T04:07:00.232Z,3.15
2023-02-19T04:12:11.277Z,3.14
2023-02-19T04:17:27.019Z,3.12
2023-02-19T04:22:35.870Z,3.11
2023-02-19T04:27:47.122Z,3.09
2023-02-19T04:32:55.386Z,3.08
2023-02-19T04:38:04.010Z,3.07
2023-02-19T04:43:11.631Z,3.06
2023-02-19T04:48:19.648Z,3.05
2023-02-19T04:53:27.721Z,3.05
2023-02-19T04:58:36.572Z,3.05
2023-02-19T05:03:44.812Z,3.04
2023-02-19T05:08:52.421Z,3.13
2023-02-19T05:14:00.463Z,3.34
2023-02-19T05:19:08.034Z,3.48
2023-02-19T05:24:15.808Z,3.57
2023-02-19T05:29:23.518Z,3.65
2023-02-19T05:34:31.966Z,3.65
2023-02-19T05:39:40.346Z,3.51
2023-02-19T05:44:49.075Z,3.42
2023-02-19T05:49:57.388Z,3.36
2023-02-19T05:55:05.819Z,3.31
2023-02-19T06:00:17.285Z,3.27
2023-02-19T06:05:26.132Z,3.25
2023-02-19T06:10:33.268Z,3.24
2023-02-19T06:15:41.766Z,3.21
2023-02-19T06:20:49.639Z,3.20
2023-02-19T06:26:06.901Z,3.18
2023-02-19T06:31:15.689Z,3.18
2023-02-19T06:36:25.272Z,3.17
2023-02-19T06:41:33.748Z,3.17
2023-02-19T06:46:41.855Z,3.18
2023-02-19T06:51:51.171Z,3.18
2023-02-19T06:56:59.727Z,3.19
2023-02-19T07:02:07.796Z,3.20
2023-02-19T07:07:16.594Z,3.21
2023-02-19T07:12:25.068Z,3.21
2023-02-19T07:17:33.481Z,3.22
2023-02-19T07:22:41.646Z,3.24
2023-02-19T07:27:48.939Z,3.23
2023-02-19T07:32:56.572Z,3.24
2023-02-19T07:38:04.543Z,3.26
2023-02-19T07:43:13.107Z,3.27
2023-02-19T07:48:21.796Z,3.30
2023-02-19T07:53:31.165Z,3.34
2023-02-19T07:58:39.563Z,3.36
2023-02-19T08:03:50.409Z,3.38
2023-02-19T08:08:59.285Z,3.41
2023-02-19T08:14:07.600Z,3.44
2023-02-19T08:19:15.808Z,3.47
2023-02-19T08:24:24.049Z,3.51
2023-02-19T08:29:33.228Z,3.55
2023-02-19T08:34:42.501Z,3.59
2023-02-19T08:39:50.952Z,3.64
2023-02-19T08:45:00.168Z,3.71
2023-02-19T08:50:10.759Z,3.78
2023-02-19T08:55:18.540Z,3.86
2023-02-19T09:00:28.457Z,3.95
2023-02-19T09:05:36.896Z,4.04
2023-02-19T09:10:45.900Z,4.12
2023-02-19T09:15:54.752Z,4.19
2023-02-19T09:21:06.770Z,4.26
2023-02-19T09:26:14.767Z,4.32
2023-02-19T09:31:23.096Z,4.40
2023-02-19T09:36:33.936Z,4.46
2023-02-19T09:41:47.028Z,4.49
2023-02-19T09:46:56.143Z,4.51
2023-02-19T09:52:08.206Z,4.52
2023-02-19T09:57:20.512Z,4.54
2023-02-19T10:02:31.404Z,4.56
2023-02-19T10:07:41.623Z,4.59
2023-02-19T10:12:53.698Z,4.63
2023-02-19T10:18:06.233Z,4.69
2023-02-19T10:23:17.974Z,4.77
2023-02-19T10:28:30.263Z,4.83
2023-02-19T10:33:53.412Z,4.91
2023-02-19T10:39:02.494Z,5.01
2023-02-19T10:44:16.803Z,5.09
2023-02-19T10:49:30.853Z,5.15
2023-02-19T10:54:39.079Z,5.19
2023-02-19T10:59:53.718Z,5.23
2023-02-19T11:05:18.269Z,5.27
2023-02-19T11:10:30.981Z,5.28
2023-02-19T11:15:40.268Z,5.30
2023-02-19T11:20:54.922Z,5.30
2023-02-19T11:26:05.537Z,5.28
2023-02-19T11:31:27.961Z,5.31
2023-02-19T11:36:38.649Z,5.34
2023-02-19T11:42:04.949Z,5.37
2023-02-19T11:47:35.192Z,5.38
2023-02-19T11:52:52.830Z,5.40
2023-02-19T11:58:17.612Z,5.44
2023-02-19T12:03:46.647Z,5.49
2023-02-19T12:09:25.583Z,5.53
2023-02-19T12:14:53.796Z,5.57
2023-02-19T12:20:21.084Z,5.61
2023-02-19T12:25:42.348Z,5.64
2023-02-19T12:31:06.522Z,5.66
2023-02-19T12:36:24.795Z,5.65
2023-02-19T12:41:43.057Z,5.63
2023-02-19T12:46:54.830Z,5.58
2023-02-19T12:52:05.216Z,5.55
2023-02-19T12:57:19.333Z,5.52
2023-02-19T13:02:33.597Z,5.48
2023-02-19T13:07:46.909Z,5.44
2023-02-19T13:12:59.159Z,5.43
2023-02-19T13:18:14.723Z,5.42
2023-02-19T13:23:44.049Z,5.44
2023-02-19T13:29:06.936Z,5.45
2023-02-19T13:34:30.387Z,5.47
2023-02-19T13:39:38.072Z,5.46
2023-02-19T13:44:57.733Z,5.46
2023-02-19T13:50:19.848Z,5.45
2023-02-19T13:55:59.038Z,5.43
2023-02-19T14:01:08.969Z,5.43
2023-02-19T14:06:17.038Z,5.45
2023-02-19T14:12:01.174Z,5.47
2023-02-19T14:17:29.981Z,5.49
2023-02-19T14:23:25.720Z,5.50
2023-02-19T14:28:37.515Z,5.49
2023-02-19T14:33:49.813Z,5.46
2023-02-19T14:38:58.793Z,5.44
2023-02-19T14:44:08.722Z,5.41
2023-02-19T14:49:22.011Z,5.37
2023-02-19T14:54:42.028Z,5.33
2023-02-19T15:00:00.367Z,5.31
2023-02-19T15:05:19.867Z,5.29
2023-02-19T15:10:29.706Z,5.27
2023-02-19T15:15:41.979Z,5.23
2023-02-19T15:20:51.643Z,5.19
2023-02-19T15:26:01.029Z,5.15
2023-02-19T15:31:18.924Z,5.10
2023-02-19T15:36:33.674Z,5.05
2023-02-19T15:41:43.268Z,4.98
2023-02-19T15:46:52.474Z,4.91
2023-02-19T15:52:06.178Z,4.83
2023-02-19T15:57:21.785Z,4.75
2023-02-19T16:02:30.244Z,4.67
2023-02-19T16:07:38.582Z,4.59
2023-02-19T16:12:56.545Z,4.50
2023-02-19T16:18:05.452Z,4.41
2023-02-19T16:23:22.503Z,4.30
2023-02-19T16:28:36.853Z,4.19
2023-02-19T16:33:48.514Z,4.10
2023-02-19T16:39:25.854Z,3.99
2023-02-19T16:44:38.038Z,3.89
2023-02-19T16:49:44.857Z,3.80
2023-02-19T16:54:53.591Z,3.72
2023-02-19T17:00:02.768Z,3.63
2023-02-19T17:05:10.823Z,3.54
2023-02-19T17:10:23.325Z,3.45
2023-02-19T17:15:32.473Z,3.37
2023-02-19T17:20:42.715Z,3.28
2023-02-19T17:25:50.950Z,3.22
2023-02-19T17:30:59.291Z,3.16
2023-02-19T17:36:08.304Z,3.10
2023-02-19T17:41:17.649Z,3.03
2023-02-19T17:46:28.617Z,2.97
2023-02-19T17:51:37.025Z,2.90
2023-02-19T17:56:47.637Z,2.84
2023-02-19T18:01:56.276Z,2.79
2023-02-19T18:07:04.204Z,2.74
2023-02-19T18:12:12.927Z,2.67
2023-02-19T18:17:21.401Z,2.62
2023-02-19T18:22:28.908Z,2.57
2023-02-19T18:27:37.696Z,2.52
2023-02-19T18:32:48.063Z,2.48
2023-02-19T18:37:56.959Z,2.44
2023-02-19T18:43:06.692Z,2.39
2023-02-19T18:48:16.183Z,2.34
2023-02-19T18:53:25.455Z,2.29
2023-02-19T18:58:33.155Z,2.23
2023-02-19T19:03:42.214Z,2.18
2023-02-19T19:08:50.533Z,2.13
2023-02-19T19:13:58.139Z,2.08
2023-02-19T19:19:07.227Z,2.02
2023-02-19T19:24:16.482Z,1.97
2023-02-19T19:29:26.250Z,1.92
2023-02-19T19:34:35.115Z,1.87
2023-02-19T19:39:44.420Z,1.83
2023-02-19T19:44:53.773Z,1.78
2023-02-19T19:50:02.404Z,1.74
2023-02-19T19:55:10.728Z,1.70
2023-02-19T20:00:20.891Z,1.67
2023-02-19T20:05:29.320Z,1.64
2023-02-19T20:10:36.917Z,1.61
2023-02-19T20:15:45.248Z,1.59
2023-02-19T20:20:53.062Z,1.56
2023-02-19T20:26:01.476Z,1.53
2023-02-19T20:31:10.214Z,1.50
2023-02-19T20:36:17.977Z,1.48
2023-02-19T20:41:25.294Z,1.45
2023-02-19T20:46:33.978Z,1.42
2023-02-19T20:51:49.162Z,1.40
2023-02-19T20:56:58.629Z,1.39
2023-02-19T21:02:08.620Z,1.36
2023-02-19T21:07:16.457Z,1.33
2023-02-19T21:12:26.514Z,1.30
2023-02-19T21:17:34.965Z,1.26
2023-02-19T21:22:43.926Z,1.23
2023-02-19T21:27:52.510Z,1.19
2023-02-19T21:32:59.920Z,1.15
2023-02-19T21:38:09.065Z,1.12
2023-02-19T21:43:18.039Z,1.12
2023-02-19T21:48:26.527Z,1.12
2023-02-19T21:53:35.102Z,1.15
2023-02-19T21:58:42.637Z,1.18
2023-02-19T22:03:51.385Z,1.20
2023-02-19T22:08:59.057Z,1.22
2023-02-19T22:14:07.923Z,1.23
2023-02-19T22:19:16.737Z,1.25
2023-02-19T22:24:27.129Z,1.26
2023-02-19T22:29:35.334Z,1.28
2023-02-19T22:34:44.592Z,1.30
2023-02-19T22:39:52.000Z,1.33
2023-02-19T22:45:00.321Z,1.35
2023-02-19T22:50:08.837Z,1.37
2023-02-19T22:55:16.468Z,1.40
2023-02-19T23:00:25.757Z,1.43
2023-02-19T23:05:36.064Z,1.46
2023-02-19T23:10:44.856Z,1.47
2023-02-19T23:15:52.443Z,1.48
2023-02-19T23:21:01.057Z,1.49
2023-02-19T23:26:10.029Z,1.50
2023-02-19T23:31:18.808Z,1.50
2023-02-19T23:36:26.442Z,1.49
2023-02-19T23:41:33.885Z,1.49
2023-02-19T23:46:41.873Z,1.49
2023-02-19T23:51:50.507Z,1.49
2023-02-19T23:56:58.782Z,1.48
